sensor_id;sensor_type;location;lat;lon;timestamp;P1;durP1;ratioP1;P2;durP2;ratioP2
801;SDS011;383;48.766;9.270;2023-01-15T00:01:41;1.80;;;1.10;;
801;SDS011;383;48.766;9.270;2023-01-15T00:04:10;1.63;;;1.10;;
801;SDS011;383;48.766;9.270;2023-01-15T00:06:38;0.95;;;0.80;;
801;SDS011;383;48.766;9.270;2023-01-15T00:09:12;0.98;;;0.90;;
801;SDS011;383;48.766;9.270;2023-01-15T00:11:39;2.10;;;1.08;;
801;SDS011;383;48.766;9.270;2023-01-15T00:14:06;2.17;;;1.00;;
801;SDS011;383;48.766;9.270;2023-01-15T00:16:33;1.17;;;0.80;;
801;SDS011;383;48.766;9.270;2023-01-15T00:19:00;0.90;;;0.80;;
801;SDS011;383;48.766;9.270;2023-01-15T00:21:28;0.90;;;0.90;;
801;SDS011;383;48.766;9.270;2023-01-15T00:23:55;1.05;;;0.95;;
801;SDS011;383;48.766;9.270;2023-01-15T00:26:37;0.90;;;0.80;;
801;SDS011;383;48.766;9.270;2023-01-15T00:29:22;1.15;;;0.80;;
801;SDS011;383;48.766;9.270;2023-01-15T00:31:50;1.88;;;0.90;;
801;SDS011;383;48.766;9.270;2023-01-15T00:34:20;0.80;;;0.70;;
801;SDS011;383;48.766;9.270;2023-01-15T00:36:47;0.85;;;0.80;;
801;SDS011;383;48.766;9.270;2023-01-15T00:39:13;1.10;;;1.00;;
801;SDS011;383;48.766;9.270;2023-01-15T00:41:41;1.63;;;1.20;;
801;SDS011;383;48.766;9.270;2023-01-15T00:44:08;1.33;;;0.85;;
801;SDS011;383;48.766;9.270;2023-01-15T00:46:38;4.97;;;1.13;;
801;SDS011;383;48.766;9.270;2023-01-15T00:49:04;2.38;;;1.08;;
801;SDS011;383;48.766;9.270;2023-01-15T00:51:31;1.40;;;1.13;;
801;SDS011;383;48.766;9.270;2023-01-15T00:53:58;0.90;;;0.80;;
801;SDS011;383;48.766;9.270;2023-01-15T00:56:25;0.93;;;0.90;;
801;SDS011;383;48.766;9.270;2023-01-15T00:58:53;1.15;;;0.88;;
801;SDS011;383;48.766;9.270;2023-01-15T01:01:20;1.38;;;0.90;;
801;SDS011;383;48.766;9.270;2023-01-15T01:03:47;1.25;;;0.85;;
801;SDS011;383;48.766;9.270;2023-01-15T01:06:16;1.77;;;0.90;;
801;SDS011;383;48.766;9.270;2023-01-15T01:08:44;1.77;;;1.00;;
801;SDS011;383;48.766;9.270;2023-01-15T01:11:12;0.85;;;0.80;;
801;SDS011;383;48.766;9.270;2023-01-15T01:13:40;1.40;;;1.00;;
801;SDS011;383;48.766;9.270;2023-01-15T01:16:26;0.80;;;0.80;;
801;SDS011;383;48.766;9.270;2023-01-15T01:18:55;0.90;;;0.80;;
801;SDS011;383;48.766;9.270;2023-01-15T01:21:23;0.80;;;0.70;;
801;SDS011;383;48.766;9.270;2023-01-15T01:23:50;0.80;;;0.70;;
801;SDS011;383;48.766;9.270;2023-01-15T01:26:17;0.90;;;0.88;;
801;SDS011;383;48.766;9.270;2023-01-15T01:28:47;1.88;;;0.90;;
801;SDS011;383;48.766;9.270;2023-01-15T01:31:14;0.90;;;0.80;;
801;SDS011;383;48.766;9.270;2023-01-15T01:33:43;0.90;;;0.70;;
801;SDS011;383;48.766;9.270;2023-01-15T01:36:12;2.15;;;0.75;;
801;SDS011;383;48.766;9.270;2023-01-15T01:38:39;0.80;;;0.77;;
801;SDS011;383;48.766;9.270;2023-01-15T01:41:06;1.05;;;0.77;;
801;SDS011;383;48.766;9.270;2023-01-15T01:43:50;0.70;;;0.70;;
801;SDS011;383;48.766;9.270;2023-01-15T01:46:19;1.53;;;1.00;;
801;SDS011;383;48.766;9.270;2023-01-15T01:48:47;1.20;;;0.90;;
801;SDS011;383;48.766;9.270;2023-01-15T01:51:16;0.70;;;0.70;;
801;SDS011;383;48.766;9.270;2023-01-15T01:53:45;1.57;;;0.80;;
801;SDS011;383;48.766;9.270;2023-01-15T01:56:12;0.73;;;0.67;;
801;SDS011;383;48.766;9.270;2023-01-15T01:58:41;1.57;;;0.87;;
801;SDS011;383;48.766;9.270;2023-01-15T02:01:12;1.50;;;0.90;;
801;SDS011;383;48.766;9.270;2023-01-15T02:03:39;1.37;;;0.80;;
801;SDS011;383;48.766;9.270;2023-01-15T02:06:08;2.00;;;0.87;;
801;SDS011;383;48.766;9.270;2023-01-15T02:08:36;3.75;;;0.80;;
801;SDS011;383;48.766;9.270;2023-01-15T02:11:04;1.23;;;0.80;;
801;SDS011;383;48.766;9.270;2023-01-15T02:13:34;0.70;;;0.60;;
801;SDS011;383;48.766;9.270;2023-01-15T02:16:05;0.87;;;0.70;;
801;SDS011;383;48.766;9.270;2023-01-15T02:18:38;0.83;;;0.77;;
801;SDS011;383;48.766;9.270;2023-01-15T02:21:11;1.13;;;0.70;;
801;SDS011;383;48.766;9.270;2023-01-15T02:26:47;0.70;;;0.70;;
801;SDS011;383;48.766;9.270;2023-01-15T02:29:26;0.65;;;0.63;;
801;SDS011;383;48.766;9.270;2023-01-15T02:31:58;1.00;;;0.90;;
801;SDS011;383;48.766;9.270;2023-01-15T02:34:28;1.10;;;1.10;;
801;SDS011;383;48.766;9.270;2023-01-15T02:37:01;0.85;;;0.80;;
801;SDS011;383;48.766;9.270;2023-01-15T02:39:31;1.13;;;1.03;;
801;SDS011;383;48.766;9.270;2023-01-15T02:42:03;0.97;;;0.70;;
801;SDS011;383;48.766;9.270;2023-01-15T02:44:32;0.70;;;0.70;;
801;SDS011;383;48.766;9.270;2023-01-15T02:47:01;1.25;;;0.70;;
801;SDS011;383;48.766;9.270;2023-01-15T02:49:30;3.13;;;0.80;;
801;SDS011;383;48.766;9.270;2023-01-15T02:51:58;0.70;;;0.70;;
801;SDS011;383;48.766;9.270;2023-01-15T02:54:29;2.95;;;0.95;;
801;SDS011;383;48.766;9.270;2023-01-15T02:57:00;0.90;;;0.80;;
801;SDS011;383;48.766;9.270;2023-01-15T02:59:32;0.83;;;0.80;;
801;SDS011;383;48.766;9.270;2023-01-15T03:02:02;0.70;;;0.60;;
801;SDS011;383;48.766;9.270;2023-01-15T03:04:33;0.80;;;0.73;;
801;SDS011;383;48.766;9.270;2023-01-15T03:07:04;0.73;;;0.63;;
801;SDS011;383;48.766;9.270;2023-01-15T03:09:34;1.35;;;0.95;;
801;SDS011;383;48.766;9.270;2023-01-15T03:12:03;0.80;;;0.70;;
801;SDS011;383;48.766;9.270;2023-01-15T03:14:38;0.93;;;0.80;;
801;SDS011;383;48.766;9.270;2023-01-15T03:17:10;0.80;;;0.70;;
801;SDS011;383;48.766;9.270;2023-01-15T03:19:40;0.65;;;0.60;;
801;SDS011;383;48.766;9.270;2023-01-15T03:22:11;1.50;;;0.90;;
801;SDS011;383;48.766;9.270;2023-01-15T03:24:45;1.00;;;0.70;;
801;SDS011;383;48.766;9.270;2023-01-15T03:27:16;0.70;;;0.60;;
801;SDS011;383;48.766;9.270;2023-01-15T03:29:44;0.80;;;0.70;;
801;SDS011;383;48.766;9.270;2023-01-15T03:32:13;1.30;;;1.20;;
801;SDS011;383;48.766;9.270;2023-01-15T03:34:42;1.00;;;0.88;;
801;SDS011;383;48.766;9.270;2023-01-15T03:37:11;0.90;;;0.80;;
801;SDS011;383;48.766;9.270;2023-01-15T03:39:39;1.90;;;0.68;;
801;SDS011;383;48.766;9.270;2023-01-15T03:42:13;0.80;;;0.70;;
801;SDS011;383;48.766;9.270;2023-01-15T03:44:49;0.80;;;0.70;;
801;SDS011;383;48.766;9.270;2023-01-15T03:47:26;3.07;;;1.37;;
801;SDS011;383;48.766;9.270;2023-01-15T03:50:01;3.20;;;0.80;;
801;SDS011;383;48.766;9.270;2023-01-15T03:52:35;0.80;;;0.70;;
801;SDS011;383;48.766;9.270;2023-01-15T03:55:10;0.80;;;0.70;;
801;SDS011;383;48.766;9.270;2023-01-15T03:57:42;0.80;;;0.70;;
801;SDS011;383;48.766;9.270;2023-01-15T04:00:16;1.77;;;0.90;;
801;SDS011;383;48.766;9.270;2023-01-15T04:02:46;0.60;;;0.60;;
801;SDS011;383;48.766;9.270;2023-01-15T04:05:15;0.88;;;0.77;;
801;SDS011;383;48.766;9.270;2023-01-15T04:07:43;0.60;;;0.60;;
801;SDS011;383;48.766;9.270;2023-01-15T04:10:12;0.80;;;0.70;;
801;SDS011;383;48.766;9.270;2023-01-15T04:12:38;0.88;;;0.70;;
801;SDS011;383;48.766;9.270;2023-01-15T04:15:07;3.92;;;0.77;;
801;SDS011;383;48.766;9.270;2023-01-15T04:17:35;0.80;;;0.70;;
801;SDS011;383;48.766;9.270;2023-01-15T04:20:02;1.67;;;0.90;;
801;SDS011;383;48.766;9.270;2023-01-15T04:22:29;0.80;;;0.70;;
801;SDS011;383;48.766;9.270;2023-01-15T04:24:57;0.60;;;0.60;;
801;SDS011;383;48.766;9.270;2023-01-15T04:27:23;0.87;;;0.80;;
801;SDS011;383;48.766;9.270;2023-01-15T04:29:51;0.70;;;0.60;;
801;SDS011;383;48.766;9.270;2023-01-15T04:32:19;0.70;;;0.65;;
801;SDS011;383;48.766;9.270;2023-01-15T04:34:45;2.10;;;0.70;;
801;SDS011;383;48.766;9.270;2023-01-15T04:37:13;0.67;;;0.63;;
801;SDS011;383;48.766;9.270;2023-01-15T04:39:39;0.80;;;0.70;;
801;SDS011;383;48.766;9.270;2023-01-15T04:42:07;0.80;;;0.70;;
801;SDS011;383;48.766;9.270;2023-01-15T04:44:54;1.00;;;0.90;;
801;SDS011;383;48.766;9.270;2023-01-15T04:47:22;0.80;;;0.70;;
801;SDS011;383;48.766;9.270;2023-01-15T04:49:49;1.83;;;0.70;;
801;SDS011;383;48.766;9.270;2023-01-15T04:52:16;1.38;;;0.60;;
801;SDS011;383;48.766;9.270;2023-01-15T04:54:42;0.90;;;0.80;;
801;SDS011;383;48.766;9.270;2023-01-15T04:57:09;0.70;;;0.60;;
801;SDS011;383;48.766;9.270;2023-01-15T04:59:36;0.70;;;0.60;;
801;SDS011;383;48.766;9.270;2023-01-15T05:02:03;0.60;;;0.60;;
801;SDS011;383;48.766;9.270;2023-01-15T05:04:31;0.70;;;0.63;;
801;SDS011;383;48.766;9.270;2023-01-15T05:06:59;0.70;;;0.70;;
801;SDS011;383;48.766;9.270;2023-01-15T05:09:26;0.70;;;0.60;;
801;SDS011;383;48.766;9.270;2023-01-15T05:11:53;0.90;;;0.80;;
801;SDS011;383;48.766;9.270;2023-01-15T05:14:20;0.70;;;0.60;;
801;SDS011;383;48.766;9.270;2023-01-15T05:16:46;0.60;;;0.60;;
801;SDS011;383;48.766;9.270;2023-01-15T05:19:13;0.70;;;0.60;;
801;SDS011;383;48.766;9.270;2023-01-15T05:21:42;0.90;;;0.80;;
801;SDS011;383;48.766;9.270;2023-01-15T05:24:10;1.05;;;0.63;;
801;SDS011;383;48.766;9.270;2023-01-15T05:26:39;0.70;;;0.60;;
801;SDS011;383;48.766;9.270;2023-01-15T05:29:05;0.60;;;0.50;;
801;SDS011;383;48.766;9.270;2023-01-15T05:31:32;1.17;;;0.70;;
801;SDS011;383;48.766;9.270;2023-01-15T05:33:59;0.70;;;0.60;;
801;SDS011;383;48.766;9.270;2023-01-15T05:36:27;0.70;;;0.60;;
801;SDS011;383;48.766;9.270;2023-01-15T05:38:57;0.93;;;0.80;;
801;SDS011;383;48.766;9.270;2023-01-15T05:41:25;1.75;;;0.70;;
801;SDS011;383;48.766;9.270;2023-01-15T05:44:10;0.82;;;0.68;;
801;SDS011;383;48.766;9.270;2023-01-15T05:46:38;1.33;;;0.80;;
801;SDS011;383;48.766;9.270;2023-01-15T05:49:09;0.80;;;0.70;;
801;SDS011;383;48.766;9.270;2023-01-15T05:51:37;1.45;;;1.40;;
801;SDS011;383;48.766;9.270;2023-01-15T05:54:07;1.10;;;1.00;;
801;SDS011;383;48.766;9.270;2023-01-15T05:56:36;2.63;;;1.00;;
801;SDS011;383;48.766;9.270;2023-01-15T05:59:04;0.98;;;0.88;;
801;SDS011;383;48.766;9.270;2023-01-15T06:01:31;1.25;;;0.88;;
801;SDS011;383;48.766;9.270;2023-01-15T06:03:59;1.15;;;1.10;;
801;SDS011;383;48.766;9.270;2023-01-15T06:06:27;1.30;;;1.00;;
801;SDS011;383;48.766;9.270;2023-01-15T06:08:54;0.90;;;0.80;;
801;SDS011;383;48.766;9.270;2023-01-15T06:11:22;1.17;;;1.08;;
801;SDS011;383;48.766;9.270;2023-01-15T06:13:49;1.45;;;0.90;;
801;SDS011;383;48.766;9.270;2023-01-15T06:16:16;1.30;;;1.20;;
801;SDS011;383;48.766;9.270;2023-01-15T06:18:43;0.85;;;0.75;;
801;SDS011;383;48.766;9.270;2023-01-15T06:21:10;0.90;;;0.90;;
801;SDS011;383;48.766;9.270;2023-01-15T06:23:38;3.15;;;1.00;;
801;SDS011;383;48.766;9.270;2023-01-15T06:26:06;1.23;;;1.10;;
801;SDS011;383;48.766;9.270;2023-01-15T06:28:37;0.85;;;0.73;;
801;SDS011;383;48.766;9.270;2023-01-15T06:31:04;0.82;;;0.80;;
801;SDS011;383;48.766;9.270;2023-01-15T06:33:31;1.00;;;0.90;;
801;SDS011;383;48.766;9.270;2023-01-15T06:36:01;0.90;;;0.80;;
801;SDS011;383;48.766;9.270;2023-01-15T06:38:28;0.95;;;0.85;;
801;SDS011;383;48.766;9.270;2023-01-15T06:40:56;1.30;;;0.88;;
801;SDS011;383;48.766;9.270;2023-01-15T06:43:23;1.20;;;0.80;;
801;SDS011;383;48.766;9.270;2023-01-15T06:46:09;0.70;;;0.60;;
801;SDS011;383;48.766;9.270;2023-01-15T06:48:53;0.80;;;0.70;;
801;SDS011;383;48.766;9.270;2023-01-15T06:51:20;0.80;;;0.70;;
801;SDS011;383;48.766;9.270;2023-01-15T06:53:47;0.80;;;0.70;;
801;SDS011;383;48.766;9.270;2023-01-15T06:56:13;0.85;;;0.75;;
801;SDS011;383;48.766;9.270;2023-01-15T06:58:40;0.80;;;0.80;;
801;SDS011;383;48.766;9.270;2023-01-15T07:01:09;0.80;;;0.70;;
801;SDS011;383;48.766;9.270;2023-01-15T07:03:37;0.90;;;0.80;;
801;SDS011;383;48.766;9.270;2023-01-15T07:06:05;0.80;;;0.70;;
801;SDS011;383;48.766;9.270;2023-01-15T07:08:32;0.80;;;0.70;;
801;SDS011;383;48.766;9.270;2023-01-15T07:11:02;0.80;;;0.70;;
801;SDS011;383;48.766;9.270;2023-01-15T07:13:30;0.90;;;0.80;;
801;SDS011;383;48.766;9.270;2023-01-15T07:15:57;0.82;;;0.80;;
801;SDS011;383;48.766;9.270;2023-01-15T07:18:26;0.80;;;0.70;;
801;SDS011;383;48.766;9.270;2023-01-15T07:20:54;0.80;;;0.70;;
801;SDS011;383;48.766;9.270;2023-01-15T07:23:21;1.00;;;0.90;;
801;SDS011;383;48.766;9.270;2023-01-15T07:25:48;0.70;;;0.60;;
801;SDS011;383;48.766;9.270;2023-01-15T07:28:16;1.00;;;0.90;;
801;SDS011;383;48.766;9.270;2023-01-15T07:30:43;1.00;;;0.90;;
801;SDS011;383;48.766;9.270;2023-01-15T07:33:10;0.80;;;0.70;;
801;SDS011;383;48.766;9.270;2023-01-15T07:35:38;0.80;;;0.70;;
801;SDS011;383;48.766;9.270;2023-01-15T07:38:04;0.77;;;0.68;;
801;SDS011;383;48.766;9.270;2023-01-15T07:40:31;1.45;;;0.85;;
801;SDS011;383;48.766;9.270;2023-01-15T07:42:58;0.90;;;0.80;;
801;SDS011;383;48.766;9.270;2023-01-15T07:45:42;1.02;;;0.93;;
801;SDS011;383;48.766;9.270;2023-01-15T07:48:26;1.00;;;0.90;;
801;SDS011;383;48.766;9.270;2023-01-15T07:51:12;1.00;;;0.90;;
801;SDS011;383;48.766;9.270;2023-01-15T07:53:38;0.88;;;0.80;;
801;SDS011;383;48.766;9.270;2023-01-15T07:56:05;1.17;;;1.08;;
801;SDS011;383;48.766;9.270;2023-01-15T07:58:33;1.10;;;1.00;;
801;SDS011;383;48.766;9.270;2023-01-15T08:00:59;0.90;;;0.80;;
801;SDS011;383;48.766;9.270;2023-01-15T08:03:26;1.52;;;0.80;;
801;SDS011;383;48.766;9.270;2023-01-15T08:05:53;0.80;;;0.80;;
801;SDS011;383;48.766;9.270;2023-01-15T08:08:21;1.10;;;1.00;;
801;SDS011;383;48.766;9.270;2023-01-15T08:10:47;0.70;;;0.70;;
801;SDS011;383;48.766;9.270;2023-01-15T08:13:32;1.00;;;0.90;;
801;SDS011;383;48.766;9.270;2023-01-15T08:16:16;0.90;;;0.80;;
801;SDS011;383;48.766;9.270;2023-01-15T08:18:42;1.02;;;0.80;;
801;SDS011;383;48.766;9.270;2023-01-15T08:21:12;0.80;;;0.70;;
801;SDS011;383;48.766;9.270;2023-01-15T08:23:41;1.08;;;0.98;;
801;SDS011;383;48.766;9.270;2023-01-15T08:26:10;1.05;;;1.00;;
801;SDS011;383;48.766;9.270;2023-01-15T08:28:37;0.80;;;0.77;;
801;SDS011;383;48.766;9.270;2023-01-15T08:31:04;1.02;;;0.93;;
801;SDS011;383;48.766;9.270;2023-01-15T08:33:32;0.88;;;0.80;;
801;SDS011;383;48.766;9.270;2023-01-15T08:36:01;1.10;;;1.00;;
801;SDS011;383;48.766;9.270;2023-01-15T08:38:28;0.90;;;0.80;;
801;SDS011;383;48.766;9.270;2023-01-15T08:40:56;1.00;;;0.90;;
801;SDS011;383;48.766;9.270;2023-01-15T08:43:28;0.93;;;0.82;;
801;SDS011;383;48.766;9.270;2023-01-15T08:45:56;0.95;;;0.85;;
801;SDS011;383;48.766;9.270;2023-01-15T08:48:23;1.30;;;1.05;;
801;SDS011;383;48.766;9.270;2023-01-15T08:50:50;0.90;;;0.80;;
801;SDS011;383;48.766;9.270;2023-01-15T08:53:17;0.85;;;0.80;;
801;SDS011;383;48.766;9.270;2023-01-15T08:55:44;8.88;;;1.33;;
801;SDS011;383;48.766;9.270;2023-01-15T08:58:13;0.90;;;0.80;;
801;SDS011;383;48.766;9.270;2023-01-15T09:00:40;1.85;;;0.90;;
801;SDS011;383;48.766;9.270;2023-01-15T09:03:07;0.88;;;0.77;;
801;SDS011;383;48.766;9.270;2023-01-15T09:05:35;0.80;;;0.70;;
801;SDS011;383;48.766;9.270;2023-01-15T09:08:02;1.10;;;1.00;;
801;SDS011;383;48.766;9.270;2023-01-15T09:10:30;0.85;;;0.80;;
801;SDS011;383;48.766;9.270;2023-01-15T09:12:57;1.33;;;1.23;;
801;SDS011;383;48.766;9.270;2023-01-15T09:15:25;1.08;;;0.98;;
801;SDS011;383;48.766;9.270;2023-01-15T09:17:52;1.33;;;1.20;;
801;SDS011;383;48.766;9.270;2023-01-15T09:20:20;1.35;;;1.20;;
801;SDS011;383;48.766;9.270;2023-01-15T09:22:47;2.47;;;1.25;;
801;SDS011;383;48.766;9.270;2023-01-15T09:25:14;1.40;;;1.10;;
801;SDS011;383;48.766;9.270;2023-01-15T09:27:43;1.08;;;0.90;;
801;SDS011;383;48.766;9.270;2023-01-15T09:30:13;1.10;;;1.00;;
801;SDS011;383;48.766;9.270;2023-01-15T09:32:43;1.02;;;0.93;;
801;SDS011;383;48.766;9.270;2023-01-15T09:35:10;1.30;;;1.20;;
801;SDS011;383;48.766;9.270;2023-01-15T09:37:37;1.58;;;1.30;;
801;SDS011;383;48.766;9.270;2023-01-15T09:40:04;1.20;;;1.10;;
801;SDS011;383;48.766;9.270;2023-01-15T09:42:36;1.25;;;1.15;;
801;SDS011;383;48.766;9.270;2023-01-15T09:45:13;1.45;;;1.35;;
801;SDS011;383;48.766;9.270;2023-01-15T09:47:47;1.10;;;1.00;;
801;SDS011;383;48.766;9.270;2023-01-15T09:50:24;1.23;;;1.10;;
801;SDS011;383;48.766;9.270;2023-01-15T09:55:46;1.08;;;1.00;;
801;SDS011;383;48.766;9.270;2023-01-15T09:58:15;1.40;;;1.00;;
801;SDS011;383;48.766;9.270;2023-01-15T10:00:45;2.17;;;1.05;;
801;SDS011;383;48.766;9.270;2023-01-15T10:03:19;1.35;;;1.10;;
801;SDS011;383;48.766;9.270;2023-01-15T10:05:54;1.05;;;0.70;;
801;SDS011;383;48.766;9.270;2023-01-15T10:08:28;2.28;;;0.90;;
801;SDS011;383;48.766;9.270;2023-01-15T10:10:59;2.67;;;1.15;;
801;SDS011;383;48.766;9.270;2023-01-15T10:13:30;1.77;;;1.25;;
801;SDS011;383;48.766;9.270;2023-01-15T10:16:04;1.17;;;0.85;;
801;SDS011;383;48.766;9.270;2023-01-15T10:18:33;0.90;;;0.80;;
801;SDS011;383;48.766;9.270;2023-01-15T10:21:05;1.25;;;1.10;;
801;SDS011;383;48.766;9.270;2023-01-15T10:23:45;1.20;;;0.93;;
801;SDS011;383;48.766;9.270;2023-01-15T10:26:24;1.30;;;1.02;;
801;SDS011;383;48.766;9.270;2023-01-15T10:28:58;0.80;;;0.70;;
801;SDS011;383;48.766;9.270;2023-01-15T10:31:44;0.85;;;0.75;;
801;SDS011;383;48.766;9.270;2023-01-15T10:37:16;0.90;;;0.80;;
801;SDS011;383;48.766;9.270;2023-01-15T10:39:47;1.10;;;1.10;;
801;SDS011;383;48.766;9.270;2023-01-15T10:42:31;1.00;;;0.90;;
801;SDS011;383;48.766;9.270;2023-01-15T10:45:10;1.58;;;1.30;;
801;SDS011;383;48.766;9.270;2023-01-15T10:47:41;5.78;;;1.00;;
801;SDS011;383;48.766;9.270;2023-01-15T10:50:15;1.10;;;1.00;;
801;SDS011;383;48.766;9.270;2023-01-15T10:52:44;1.67;;;1.00;;
801;SDS011;383;48.766;9.270;2023-01-15T10:55:16;1.00;;;0.95;;
801;SDS011;383;48.766;9.270;2023-01-15T10:57:49;0.95;;;0.90;;
801;SDS011;383;48.766;9.270;2023-01-15T11:00:23;1.33;;;0.80;;
801;SDS011;383;48.766;9.270;2023-01-15T11:02:52;1.00;;;0.90;;
801;SDS011;383;48.766;9.270;2023-01-15T11:05:26;1.23;;;1.05;;
801;SDS011;383;48.766;9.270;2023-01-15T11:07:54;1.23;;;1.13;;
801;SDS011;383;48.766;9.270;2023-01-15T11:10:22;2.70;;;1.70;;
801;SDS011;383;48.766;9.270;2023-01-15T11:12:50;1.95;;;0.95;;
801;SDS011;383;48.766;9.270;2023-01-15T11:15:36;1.13;;;0.82;;
801;SDS011;383;48.766;9.270;2023-01-15T11:18:22;1.00;;;0.90;;
801;SDS011;383;48.766;9.270;2023-01-15T11:21:13;1.20;;;1.10;;
801;SDS011;383;48.766;9.270;2023-01-15T11:23:42;1.10;;;1.00;;
801;SDS011;383;48.766;9.270;2023-01-15T11:26:09;1.10;;;1.00;;
801;SDS011;383;48.766;9.270;2023-01-15T11:28:43;2.80;;;1.48;;
801;SDS011;383;48.766;9.270;2023-01-15T11:31:11;0.90;;;0.80;;
801;SDS011;383;48.766;9.270;2023-01-15T11:33:38;1.00;;;0.90;;
801;SDS011;383;48.766;9.270;2023-01-15T11:36:19;0.90;;;0.80;;
801;SDS011;383;48.766;9.270;2023-01-15T11:38:47;1.05;;;0.95;;
801;SDS011;383;48.766;9.270;2023-01-15T11:41:18;1.63;;;1.00;;
801;SDS011;383;48.766;9.270;2023-01-15T11:43:52;1.00;;;0.88;;
801;SDS011;383;48.766;9.270;2023-01-15T11:46:37;1.15;;;1.05;;
801;SDS011;383;48.766;9.270;2023-01-15T11:49:21;0.98;;;0.88;;
801;SDS011;383;48.766;9.270;2023-01-15T11:52:07;1.00;;;0.90;;
801;SDS011;383;48.766;9.270;2023-01-15T11:54:36;0.90;;;0.80;;
801;SDS011;383;48.766;9.270;2023-01-15T11:57:06;1.02;;;0.93;;
801;SDS011;383;48.766;9.270;2023-01-15T11:59:33;1.10;;;1.00;;
801;SDS011;383;48.766;9.270;2023-01-15T12:02:01;4.50;;;1.95;;
801;SDS011;383;48.766;9.270;2023-01-15T12:04:35;3.33;;;2.38;;
801;SDS011;383;48.766;9.270;2023-01-15T12:07:12;3.00;;;2.83;;
801;SDS011;383;48.766;9.270;2023-01-15T12:09:46;1.85;;;1.75;;
801;SDS011;383;48.766;9.270;2023-01-15T12:12:38;2.60;;;0.80;;
801;SDS011;383;48.766;9.270;2023-01-15T12:15:22;1.48;;;1.38;;
801;SDS011;383;48.766;9.270;2023-01-15T12:18:05;1.00;;;0.90;;
801;SDS011;383;48.766;9.270;2023-01-15T12:20:50;1.48;;;1.30;;
801;SDS011;383;48.766;9.270;2023-01-15T12:26:27;1.65;;;1.55;;
801;SDS011;383;48.766;9.270;2023-01-15T12:28:58;1.13;;;1.10;;
801;SDS011;383;48.766;9.270;2023-01-15T12:31:31;1.88;;;1.77;;
801;SDS011;383;48.766;9.270;2023-01-15T12:34:04;1.30;;;1.20;;
801;SDS011;383;48.766;9.270;2023-01-15T12:36:39;1.00;;;0.90;;
801;SDS011;383;48.766;9.270;2023-01-15T12:39:13;2.78;;;0.80;;
801;SDS011;383;48.766;9.270;2023-01-15T12:41:44;2.90;;;1.35;;
801;SDS011;383;48.766;9.270;2023-01-15T12:44:33;1.92;;;1.08;;
801;SDS011;383;48.766;9.270;2023-01-15T12:47:21;3.05;;;2.03;;
801;SDS011;383;48.766;9.270;2023-01-15T12:49:55;1.33;;;1.25;;
801;SDS011;383;48.766;9.270;2023-01-15T12:52:27;1.60;;;1.50;;
801;SDS011;383;48.766;9.270;2023-01-15T12:55:01;1.95;;;1.48;;
801;SDS011;383;48.766;9.270;2023-01-15T12:57:41;1.85;;;1.77;;
801;SDS011;383;48.766;9.270;2023-01-15T13:00:12;4.10;;;1.40;;
801;SDS011;383;48.766;9.270;2023-01-15T13:02:49;1.20;;;1.17;;
801;SDS011;383;48.766;9.270;2023-01-15T13:05:38;2.03;;;1.30;;
801;SDS011;383;48.766;9.270;2023-01-15T13:08:12;1.58;;;1.00;;
801;SDS011;383;48.766;9.270;2023-01-15T13:10:49;1.40;;;0.90;;
801;SDS011;383;48.766;9.270;2023-01-15T13:13:18;2.42;;;1.50;;
801;SDS011;383;48.766;9.270;2023-01-15T13:15:59;2.13;;;1.40;;
801;SDS011;383;48.766;9.270;2023-01-15T13:18:50;4.38;;;1.90;;
801;SDS011;383;48.766;9.270;2023-01-15T13:21:22;2.65;;;1.73;;
801;SDS011;383;48.766;9.270;2023-01-15T13:23:54;1.60;;;1.45;;
801;SDS011;383;48.766;9.270;2023-01-15T13:26:46;1.80;;;1.23;;
801;SDS011;383;48.766;9.270;2023-01-15T13:29:24;1.45;;;1.08;;
801;SDS011;383;48.766;9.270;2023-01-15T13:32:01;2.25;;;0.95;;
801;SDS011;383;48.766;9.270;2023-01-15T13:34:35;3.33;;;1.02;;
801;SDS011;383;48.766;9.270;2023-01-15T13:37:06;1.40;;;1.20;;
801;SDS011;383;48.766;9.270;2023-01-15T13:39:41;1.35;;;1.25;;
801;SDS011;383;48.766;9.270;2023-01-15T13:42:16;1.85;;;1.40;;
801;SDS011;383;48.766;9.270;2023-01-15T13:44:58;3.28;;;1.40;;
801;SDS011;383;48.766;9.270;2023-01-15T13:47:50;2.55;;;1.33;;
801;SDS011;383;48.766;9.270;2023-01-15T13:50:18;1.30;;;1.17;;
801;SDS011;383;48.766;9.270;2023-01-15T13:52:58;1.80;;;1.20;;
801;SDS011;383;48.766;9.270;2023-01-15T13:55:28;1.27;;;1.25;;
801;SDS011;383;48.766;9.270;2023-01-15T13:57:58;1.88;;;0.90;;
801;SDS011;383;48.766;9.270;2023-01-15T14:00:28;2.60;;;1.60;;
801;SDS011;383;48.766;9.270;2023-01-15T14:02:56;5.07;;;1.50;;
801;SDS011;383;48.766;9.270;2023-01-15T14:05:26;3.05;;;1.25;;
801;SDS011;383;48.766;9.270;2023-01-15T14:07:54;1.52;;;1.10;;
801;SDS011;383;48.766;9.270;2023-01-15T14:10:23;16.50;;;1.20;;
801;SDS011;383;48.766;9.270;2023-01-15T14:13:11;1.77;;;1.02;;
801;SDS011;383;48.766;9.270;2023-01-15T14:15:49;1.27;;;1.17;;
801;SDS011;383;48.766;9.270;2023-01-15T14:18:25;3.08;;;1.02;;
801;SDS011;383;48.766;9.270;2023-01-15T14:21:09;1.30;;;1.20;;
801;SDS011;383;48.766;9.270;2023-01-15T14:24:07;2.05;;;1.30;;
801;SDS011;383;48.766;9.270;2023-01-15T14:26:44;3.90;;;1.30;;
801;SDS011;383;48.766;9.270;2023-01-15T14:29:31;1.75;;;1.20;;
801;SDS011;383;48.766;9.270;2023-01-15T14:32:14;1.38;;;1.02;;
801;SDS011;383;48.766;9.270;2023-01-15T14:34:54;1.38;;;1.20;;
801;SDS011;383;48.766;9.270;2023-01-15T14:37:23;2.10;;;1.38;;
801;SDS011;383;48.766;9.270;2023-01-15T14:39:54;2.53;;;1.30;;
801;SDS011;383;48.766;9.270;2023-01-15T14:42:24;4.05;;;1.50;;
801;SDS011;383;48.766;9.270;2023-01-15T14:45:18;2.17;;;1.00;;
801;SDS011;383;48.766;9.270;2023-01-15T14:47:50;6.30;;;1.30;;
801;SDS011;383;48.766;9.270;2023-01-15T14:50:23;9.88;;;1.33;;
801;SDS011;383;48.766;9.270;2023-01-15T14:52:58;1.60;;;1.20;;
801;SDS011;383;48.766;9.270;2023-01-15T14:55:30;1.92;;;1.20;;
801;SDS011;383;48.766;9.270;2023-01-15T14:58:00;9.05;;;1.63;;
801;SDS011;383;48.766;9.270;2023-01-15T15:00:34;1.77;;;1.50;;
801;SDS011;383;48.766;9.270;2023-01-15T15:03:12;2.78;;;1.58;;
801;SDS011;383;48.766;9.270;2023-01-15T15:05:42;4.00;;;1.80;;
801;SDS011;383;48.766;9.270;2023-01-15T15:08:12;3.88;;;1.25;;
801;SDS011;383;48.766;9.270;2023-01-15T15:10:41;7.10;;;2.10;;
801;SDS011;383;48.766;9.270;2023-01-15T15:13:12;3.05;;;1.63;;
801;SDS011;383;48.766;9.270;2023-01-15T15:15:47;2.22;;;1.70;;
801;SDS011;383;48.766;9.270;2023-01-15T15:18:22;3.38;;;1.60;;
801;SDS011;383;48.766;9.270;2023-01-15T15:20:58;6.28;;;1.25;;
801;SDS011;383;48.766;9.270;2023-01-15T15:23:32;2.63;;;1.38;;
801;SDS011;383;48.766;9.270;2023-01-15T15:26:05;1.73;;;1.10;;
801;SDS011;383;48.766;9.270;2023-01-15T15:28:42;4.20;;;1.00;;
801;SDS011;383;48.766;9.270;2023-01-15T15:31:10;2.75;;;1.52;;
801;SDS011;383;48.766;9.270;2023-01-15T15:33:38;1.65;;;1.10;;
801;SDS011;383;48.766;9.270;2023-01-15T15:36:08;3.35;;;1.75;;
801;SDS011;383;48.766;9.270;2023-01-15T15:38:35;3.50;;;1.48;;
801;SDS011;383;48.766;9.270;2023-01-15T15:41:07;2.25;;;1.15;;
801;SDS011;383;48.766;9.270;2023-01-15T15:43:39;3.95;;;1.30;;
801;SDS011;383;48.766;9.270;2023-01-15T15:46:28;2.38;;;1.42;;
801;SDS011;383;48.766;9.270;2023-01-15T15:49:14;9.93;;;4.25;;
801;SDS011;383;48.766;9.270;2023-01-15T16:02:16;10.73;;;2.30;;
801;SDS011;383;48.766;9.270;2023-01-15T16:04:46;1.80;;;1.50;;
801;SDS011;383;48.766;9.270;2023-01-15T16:07:16;4.53;;;1.50;;
801;SDS011;383;48.766;9.270;2023-01-15T16:09:49;4.10;;;2.30;;
801;SDS011;383;48.766;9.270;2023-01-15T16:12:19;3.25;;;1.90;;
801;SDS011;383;48.766;9.270;2023-01-15T16:14:49;3.35;;;2.10;;
801;SDS011;383;48.766;9.270;2023-01-15T16:17:17;1.45;;;1.40;;
801;SDS011;383;48.766;9.270;2023-01-15T16:19:44;5.07;;;2.03;;
801;SDS011;383;48.766;9.270;2023-01-15T16:22:12;5.03;;;1.73;;
801;SDS011;383;48.766;9.270;2023-01-15T16:24:51;1.35;;;1.00;;
801;SDS011;383;48.766;9.270;2023-01-15T16:27:19;7.25;;;1.75;;
801;SDS011;383;48.766;9.270;2023-01-15T16:29:47;1.42;;;1.33;;
801;SDS011;383;48.766;9.270;2023-01-15T16:32:16;1.88;;;1.42;;
801;SDS011;383;48.766;9.270;2023-01-15T16:34:49;5.95;;;2.22;;